Frostrup, Denmark
Current Conditions -  °F | °C
As of 10:20 AM on Monday 20 Oct 2014 (Local Time) from EKYT Reporting Station
Broken Clouds Broken Clouds  
Wind Chill: 55°   Ceiling: 1700
Heat Index: 55°   Visibility: 6mi
Dew Point: 52°   Wind: 17mph
Humidity: 88%   Direction: 270°W
Pressure: 29.56"   Gusts: 31mph
Location:  57.08°N, 8.98°E
Report Text: EKYT 200820Z 27015G27KT 9999 SCT013 BKN017 13/11 Q1001
Loading
Personal Weather Stations






























Interactive Weather Map
Tropical Storm Tracking
New forecast layout! Learn more

10-Day Weather Forecast

Advertisements
Track Severe Weather on mobile